Terminal Aerodrome Forecast
Issued by NWS

Home | Current Version | Previous Version | Text Only | Print | Product List | Glossary On
Versions: 1 2 3 4 5 6 7 8 9 10 11 12 13 14 15 16 17 18 19 20 21 22 23 24 25 26
873
FTAK31 PAFA 242320
TAFAOM
TAF
PAOM 242320Z 2500/2524 VRB04KT 6SM -SN BR BKN025 OVC035
     FM250600 02006KT 4SM -SN BR SCT005 SCT015 OVC025
     FM250900 05006KT 2SM -SN BR SCT005 BKN015 OVC025
     FM251500 05006KT 4SM -SN BR SCT005 BKN015 OVC025=

USA.gov is the U.S. government's official web portal to all federal, state and local government web resources and services.